sensor_id;sensor_type;location;lat;lon;timestamp;pressure;altitude;pressure_sealevel;temperature;humidity
80911;BME280;70359;51.420;7.032;2023-11-19T00:00:34;994.1822;;;11.19;75.30078
80911;BME280;70359;51.420;7.032;2023-11-19T00:02:59;994.2129;;;11.26;75.12109
80911;BME280;70359;51.420;7.032;2023-11-19T00:05:24;994.3074;;;11.28;75.30566
80911;BME280;70359;51.420;7.032;2023-11-19T00:07:49;994.2034;;;11.31;75.11719
80911;BME280;70359;51.420;7.032;2023-11-19T00:10:15;994.254;;;11.19;75.70703
80911;BME280;70359;51.420;7.032;2023-11-19T00:12:41;994.2108;;;11.33;75.14453
80911;BME280;70359;51.420;7.032;2023-11-19T00:15:04;994.1808;;;11.26;75.71875
80911;BME280;70359;51.420;7.032;2023-11-19T00:17:29;994.4785;;;11.37;75.46484
80911;BME280;70359;51.420;7.032;2023-11-19T00:19:54;994.4523;;;11.42;75.31836
80911;BME280;70359;51.420;7.032;2023-11-19T00:22:19;994.4501;;;11.51;74.81445
80911;BME280;70359;51.420;7.032;2023-11-19T00:24:44;994.4332;;;11.54;74.91992
80911;BME280;70359;51.420;7.032;2023-11-19T00:27:09;994.4317;;;11.56;74.92285
80911;BME280;70359;51.420;7.032;2023-11-19T00:29:34;994.3939;;;11.53;75.23438
80911;BME280;70359;51.420;7.032;2023-11-19T00:31:59;994.4498;;;11.59;75.41504
80911;BME280;70359;51.420;7.032;2023-11-19T00:34:24;994.4995;;;11.53;75.78809
80911;BME280;70359;51.420;7.032;2023-11-19T00:36:49;994.4435;;;11.74;75.16895
80911;BME280;70359;51.420;7.032;2023-11-19T00:39:14;994.405;;;11.71;75.11914
80911;BME280;70359;51.420;7.032;2023-11-19T00:41:39;994.3903;;;11.78;75.08398
80911;BME280;70359;51.420;7.032;2023-11-19T00:44:04;994.2811;;;11.74;75.24902
80911;BME280;70359;51.420;7.032;2023-11-19T00:46:29;994.2734;;;11.8;75.05469
80911;BME280;70359;51.420;7.032;2023-11-19T00:48:54;994.2361;;;11.76;75.17285
80911;BME280;70359;51.420;7.032;2023-11-19T00:51:19;994.1749;;;11.71;75.38867
80911;BME280;70359;51.420;7.032;2023-11-19T00:53:44;994.1699;;;11.65;75.95508
80911;BME280;70359;51.420;7.032;2023-11-19T00:56:10;994.1976;;;11.73;75.8125
80911;BME280;70359;51.420;7.032;2023-11-19T00:58:34;994.1144;;;11.8;75.5293
80911;BME280;70359;51.420;7.032;2023-11-19T01:00:59;994.07;;;11.79;75.34863
80911;BME280;70359;51.420;7.032;2023-11-19T01:03:24;994.0327;;;11.79;75.65234
80911;BME280;70359;51.420;7.032;2023-11-19T01:05:49;994.0527;;;11.83;75.7373
80911;BME280;70359;51.420;7.032;2023-11-19T01:08:14;994.0186;;;11.85;75.69531
80911;BME280;70359;51.420;7.032;2023-11-19T01:10:40;994.0756;;;11.9;75.69336
80911;BME280;70359;51.420;7.032;2023-11-19T01:13:04;993.9932;;;11.97;75.55762
80911;BME280;70359;51.420;7.032;2023-11-19T01:15:29;994.0333;;;11.87;76.42285
80911;BME280;70359;51.420;7.032;2023-11-19T01:17:54;994.0375;;;12.05;75.86621
80911;BME280;70359;51.420;7.032;2023-11-19T01:20:19;994.0828;;;11.98;75.97852
80911;BME280;70359;51.420;7.032;2023-11-19T01:22:44;994.0905;;;12.1;75.60449
80911;BME280;70359;51.420;7.032;2023-11-19T01:25:09;994.0864;;;12.16;75.60254
80911;BME280;70359;51.420;7.032;2023-11-19T01:27:34;994.0916;;;12.23;75.23047
80911;BME280;70359;51.420;7.032;2023-11-19T01:29:59;994.1042;;;12.3;74.99219
80911;BME280;70359;51.420;7.032;2023-11-19T01:32:24;994.2109;;;12.37;74.59766
80911;BME280;70359;51.420;7.032;2023-11-19T01:34:49;994.1487;;;12.39;74.6582
80911;BME280;70359;51.420;7.032;2023-11-19T01:37:14;994.2299;;;12.5;74.21289
80911;BME280;70359;51.420;7.032;2023-11-19T01:39:39;994.1588;;;12.36;74.61816
80911;BME280;70359;51.420;7.032;2023-11-19T01:42:04;994.2159;;;12.45;74.7793
80911;BME280;70359;51.420;7.032;2023-11-19T01:44:29;994.1571;;;12.36;75.26367
80911;BME280;70359;51.420;7.032;2023-11-19T01:46:54;994.1064;;;12.45;74.95996
80911;BME280;70359;51.420;7.032;2023-11-19T01:49:19;994.1392;;;12.38;75.41504
80911;BME280;70359;51.420;7.032;2023-11-19T01:51:44;994.0776;;;12.55;74.875
80911;BME280;70359;51.420;7.032;2023-11-19T01:54:09;994.0839;;;12.5;75.10645
80911;BME280;70359;51.420;7.032;2023-11-19T01:56:34;994.0439;;;12.54;75.20313
80911;BME280;70359;51.420;7.032;2023-11-19T01:58:59;994.1211;;;12.49;75.25195
80911;BME280;70359;51.420;7.032;2023-11-19T02:01:24;994.1234;;;12.62;74.95703
80911;BME280;70359;51.420;7.032;2023-11-19T02:03:52;993.9832;;;12.65;74.67871
80911;BME280;70359;51.420;7.032;2023-11-19T02:06:14;994.0444;;;12.55;75.375
80911;BME280;70359;51.420;7.032;2023-11-19T02:08:39;994.0334;;;12.57;75.34375
80911;BME280;70359;51.420;7.032;2023-11-19T02:11:05;994.0114;;;12.56;75.50195
80911;BME280;70359;51.420;7.032;2023-11-19T02:13:29;994.0443;;;12.6;75.39551
80911;BME280;70359;51.420;7.032;2023-11-19T02:15:54;993.7958;;;12.56;75.59082
80911;BME280;70359;51.420;7.032;2023-11-19T02:18:23;993.6404;;;12.63;75.1748
80911;BME280;70359;51.420;7.032;2023-11-19T02:20:44;993.5569;;;12.58;75.62793
80911;BME280;70359;51.420;7.032;2023-11-19T02:23:09;993.5347;;;12.56;75.5459
80911;BME280;70359;51.420;7.032;2023-11-19T02:25:34;993.4807;;;12.61;75.2959
80911;BME280;70359;51.420;7.032;2023-11-19T02:27:59;993.509;;;12.64;75.43555
80911;BME280;70359;51.420;7.032;2023-11-19T02:30:24;993.5162;;;12.53;75.87891
80911;BME280;70359;51.420;7.032;2023-11-19T02:32:49;993.4761;;;12.68;75.16016
80911;BME280;70359;51.420;7.032;2023-11-19T02:35:14;993.4808;;;12.64;75.37988
80911;BME280;70359;51.420;7.032;2023-11-19T02:37:39;993.4299;;;12.73;75.08887
80911;BME280;70359;51.420;7.032;2023-11-19T02:40:05;993.5399;;;12.62;75.71484
80911;BME280;70359;51.420;7.032;2023-11-19T02:42:29;993.5642;;;12.73;75.33691
80911;BME280;70359;51.420;7.032;2023-11-19T02:44:54;993.4768;;;12.62;75.82813
80911;BME280;70359;51.420;7.032;2023-11-19T02:47:19;993.5466;;;12.75;75.33105
80911;BME280;70359;51.420;7.032;2023-11-19T02:49:44;993.4948;;;12.78;75.28809
80911;BME280;70359;51.420;7.032;2023-11-19T02:52:09;993.5262;;;12.78;75.0752
80911;BME280;70359;51.420;7.032;2023-11-19T02:54:34;993.4919;;;12.75;75.25098
80911;BME280;70359;51.420;7.032;2023-11-19T02:56:59;993.5233;;;12.91;74.6875
80911;BME280;70359;51.420;7.032;2023-11-19T02:59:24;993.4711;;;12.85;74.89453
80911;BME280;70359;51.420;7.032;2023-11-19T03:01:49;993.4023;;;12.99;74.53125
80911;BME280;70359;51.420;7.032;2023-11-19T03:04:14;993.4374;;;12.88;74.65039
80911;BME280;70359;51.420;7.032;2023-11-19T03:06:39;993.3714;;;12.99;74.44141
80911;BME280;70359;51.420;7.032;2023-11-19T03:09:04;993.414;;;12.93;74.51074
80911;BME280;70359;51.420;7.032;2023-11-19T03:11:29;993.3727;;;13.03;74.32324
80911;BME280;70359;51.420;7.032;2023-11-19T03:13:54;993.4313;;;12.84;74.90332
80911;BME280;70359;51.420;7.032;2023-11-19T03:16:19;993.3362;;;12.9;74.90234
80911;BME280;70359;51.420;7.032;2023-11-19T03:18:44;993.2206;;;12.89;74.95605
80911;BME280;70359;51.420;7.032;2023-11-19T03:21:09;993.2713;;;12.96;74.52734
80911;BME280;70359;51.420;7.032;2023-11-19T03:23:35;993.1185;;;13.02;74.31055
80911;BME280;70359;51.420;7.032;2023-11-19T03:25:59;993.1713;;;13.02;74.48145
80911;BME280;70359;51.420;7.032;2023-11-19T03:28:24;993.1453;;;13.07;74.12793
80911;BME280;70359;51.420;7.032;2023-11-19T03:30:49;993.2332;;;12.96;74.57324
80911;BME280;70359;51.420;7.032;2023-11-19T03:33:14;993.3311;;;12.96;74.62988
80911;BME280;70359;51.420;7.032;2023-11-19T03:35:39;993.4128;;;12.92;74.72559
80911;BME280;70359;51.420;7.032;2023-11-19T03:38:04;993.3041;;;13.02;74.25488
80911;BME280;70359;51.420;7.032;2023-11-19T03:40:29;993.2622;;;12.88;74.79688
80911;BME280;70359;51.420;7.032;2023-11-19T03:42:54;993.3649;;;12.98;74.29297
80911;BME280;70359;51.420;7.032;2023-11-19T03:45:19;993.4836;;;12.94;74.2627
80911;BME280;70359;51.420;7.032;2023-11-19T03:47:44;993.3926;;;13.04;73.77051
80911;BME280;70359;51.420;7.032;2023-11-19T03:50:10;993.4553;;;12.89;74.19824
80911;BME280;70359;51.420;7.032;2023-11-19T03:52:34;993.4247;;;12.98;73.62402
80911;BME280;70359;51.420;7.032;2023-11-19T03:54:59;993.3405;;;12.94;73.7207
80911;BME280;70359;51.420;7.032;2023-11-19T03:57:24;993.3766;;;13.03;73.35938
80911;BME280;70359;51.420;7.032;2023-11-19T03:59:50;993.4102;;;12.97;73.18262
80911;BME280;70359;51.420;7.032;2023-11-19T04:02:14;993.527;;;13.05;72.76367
80911;BME280;70359;51.420;7.032;2023-11-19T04:04:39;993.4961;;;12.89;73.2793
80911;BME280;70359;51.420;7.032;2023-11-19T04:07:04;993.4852;;;12.92;73.09375
80911;BME280;70359;51.420;7.032;2023-11-19T04:09:29;993.4846;;;12.88;73.1543
80911;BME280;70359;51.420;7.032;2023-11-19T04:11:54;993.5369;;;12.93;72.68652
80911;BME280;70359;51.420;7.032;2023-11-19T04:14:19;993.5292;;;12.82;72.88379
80911;BME280;70359;51.420;7.032;2023-11-19T04:16:45;993.4576;;;12.93;72.52734
80911;BME280;70359;51.420;7.032;2023-11-19T04:19:10;993.4861;;;12.82;72.84961
80911;BME280;70359;51.420;7.032;2023-11-19T04:21:34;993.4654;;;12.77;72.96484
80911;BME280;70359;51.420;7.032;2023-11-19T04:23:59;993.3286;;;12.62;73.50781
80911;BME280;70359;51.420;7.032;2023-11-19T04:26:25;993.3817;;;12.58;73.33203
80911;BME280;70359;51.420;7.032;2023-11-19T04:28:50;993.4911;;;12.5;73.43164
80911;BME280;70359;51.420;7.032;2023-11-19T04:31:15;993.5756;;;12.57;73.25
80911;BME280;70359;51.420;7.032;2023-11-19T04:33:40;993.5577;;;12.63;72.83008
80911;BME280;70359;51.420;7.032;2023-11-19T04:36:05;993.465;;;12.56;72.91992
80911;BME280;70359;51.420;7.032;2023-11-19T04:38:30;993.459;;;12.47;72.95215
80911;BME280;70359;51.420;7.032;2023-11-19T04:40:55;993.5776;;;12.46;72.75586
80911;BME280;70359;51.420;7.032;2023-11-19T04:43:20;993.617;;;12.55;72.48828
80911;BME280;70359;51.420;7.032;2023-11-19T04:45:45;993.6001;;;12.49;72.73926
80911;BME280;70359;51.420;7.032;2023-11-19T04:48:10;993.563;;;12.59;72.38184
80911;BME280;70359;51.420;7.032;2023-11-19T04:50:35;993.593;;;12.6;72.55371
80911;BME280;70359;51.420;7.032;2023-11-19T04:53:00;993.5862;;;12.69;72.12598
80911;BME280;70359;51.420;7.032;2023-11-19T04:55:25;993.5533;;;12.63;72.42188
80911;BME280;70359;51.420;7.032;2023-11-19T04:57:50;993.6805;;;12.63;72.32031
80911;BME280;70359;51.420;7.032;2023-11-19T05:00:15;993.6435;;;12.55;72.48926
80911;BME280;70359;51.420;7.032;2023-11-19T05:02:40;993.666;;;12.6;72.00977
80911;BME280;70359;51.420;7.032;2023-11-19T05:05:05;993.7614;;;12.45;72.4707
80911;BME280;70359;51.420;7.032;2023-11-19T05:07:30;993.7213;;;12.51;72.25586
80911;BME280;70359;51.420;7.032;2023-11-19T05:09:55;993.6979;;;12.58;72.18652
80911;BME280;70359;51.420;7.032;2023-11-19T05:12:20;993.7408;;;12.65;71.82422
80911;BME280;70359;51.420;7.032;2023-11-19T05:14:45;993.6922;;;12.64;71.99414
80911;BME280;70359;51.420;7.032;2023-11-19T05:17:10;993.7377;;;12.68;71.70605
80911;BME280;70359;51.420;7.032;2023-11-19T05:19:35;993.7357;;;12.62;72.03516
80911;BME280;70359;51.420;7.032;2023-11-19T05:22:00;993.7328;;;12.61;71.94434
80911;BME280;70359;51.420;7.032;2023-11-19T05:24:25;993.7114;;;12.52;72.18945
80911;BME280;70359;51.420;7.032;2023-11-19T05:26:50;993.7397;;;12.66;71.73535
80911;BME280;70359;51.420;7.032;2023-11-19T05:29:15;993.6786;;;12.6;71.85156
80911;BME280;70359;51.420;7.032;2023-11-19T05:31:40;993.7122;;;12.67;71.64746
80911;BME280;70359;51.420;7.032;2023-11-19T05:34:05;993.7378;;;12.6;71.73633
80911;BME280;70359;51.420;7.032;2023-11-19T05:36:30;993.7285;;;12.71;71.47363
80911;BME280;70359;51.420;7.032;2023-11-19T05:38:55;993.7436;;;12.66;71.4873
80911;BME280;70359;51.420;7.032;2023-11-19T05:41:20;993.7195;;;12.71;71.24512
80911;BME280;70359;51.420;7.032;2023-11-19T05:43:45;993.6731;;;12.59;71.58887
80911;BME280;70359;51.420;7.032;2023-11-19T05:46:10;993.7386;;;12.56;71.61914
80911;BME280;70359;51.420;7.032;2023-11-19T05:48:35;993.6786;;;12.62;71.52539
80911;BME280;70359;51.420;7.032;2023-11-19T05:51:00;993.709;;;12.5;71.92578
80911;BME280;70359;51.420;7.032;2023-11-19T05:53:25;993.7523;;;12.52;71.76855
80911;BME280;70359;51.420;7.032;2023-11-19T05:55:50;993.8613;;;12.63;71.57227
80911;BME280;70359;51.420;7.032;2023-11-19T05:58:15;993.8041;;;12.6;71.43066
80911;BME280;70359;51.420;7.032;2023-11-19T06:00:40;993.8059;;;12.51;71.51758
80911;BME280;70359;51.420;7.032;2023-11-19T06:03:05;993.7609;;;12.46;71.27246
80911;BME280;70359;51.420;7.032;2023-11-19T06:05:30;993.8309;;;12.33;71.53516
80911;BME280;70359;51.420;7.032;2023-11-19T06:07:55;993.9099;;;12.52;70.98828
80911;BME280;70359;51.420;7.032;2023-11-19T06:10:20;993.91;;;12.44;71.14551
80911;BME280;70359;51.420;7.032;2023-11-19T06:12:45;993.9127;;;12.53;70.83105
80911;BME280;70359;51.420;7.032;2023-11-19T06:15:10;993.9148;;;12.5;70.75879
80911;BME280;70359;51.420;7.032;2023-11-19T06:17:35;993.8464;;;12.53;70.58008
80911;BME280;70359;51.420;7.032;2023-11-19T06:20:00;993.7972;;;12.36;71.01855
80911;BME280;70359;51.420;7.032;2023-11-19T06:22:25;993.7651;;;12.46;70.49121
80911;BME280;70359;51.420;7.032;2023-11-19T06:24:50;993.8698;;;12.39;70.68359
80911;BME280;70359;51.420;7.032;2023-11-19T06:27:15;993.8709;;;12.46;70.51563
80911;BME280;70359;51.420;7.032;2023-11-19T06:29:40;993.8747;;;12.45;70.55762
80911;BME280;70359;51.420;7.032;2023-11-19T06:32:05;993.8812;;;12.56;70.23633
80911;BME280;70359;51.420;7.032;2023-11-19T06:34:30;993.7413;;;12.52;69.65137
80911;BME280;70359;51.420;7.032;2023-11-19T06:36:55;993.838;;;12.53;69.3584
80911;BME280;70359;51.420;7.032;2023-11-19T06:39:20;993.858;;;12.42;69.27344
80911;BME280;70359;51.420;7.032;2023-11-19T06:41:48;993.8747;;;12.44;68.76563
80911;BME280;70359;51.420;7.032;2023-11-19T06:44:10;993.9329;;;12.31;68.97266
80911;BME280;70359;51.420;7.032;2023-11-19T06:46:35;993.9664;;;12.25;68.88379
80911;BME280;70359;51.420;7.032;2023-11-19T06:49:00;994.0444;;;12.27;68.84082
80911;BME280;70359;51.420;7.032;2023-11-19T06:51:25;994.0907;;;12.32;68.3623
80911;BME280;70359;51.420;7.032;2023-11-19T06:53:50;994.1545;;;12.31;68.56348
80911;BME280;70359;51.420;7.032;2023-11-19T06:56:22;994.0963;;;12.41;67.95703
80911;BME280;70359;51.420;7.032;2023-11-19T06:58:42;994.0742;;;12.34;67.59277
80911;BME280;70359;51.420;7.032;2023-11-19T07:01:06;994.2288;;;12.38;67.60156
80911;BME280;70359;51.420;7.032;2023-11-19T07:03:30;994.2844;;;12.45;67.52051
80911;BME280;70359;51.420;7.032;2023-11-19T07:05:55;994.2771;;;12.37;67.71094
80911;BME280;70359;51.420;7.032;2023-11-19T07:08:20;994.2335;;;12.38;67.40723
80911;BME280;70359;51.420;7.032;2023-11-19T07:10:45;994.2584;;;12.3;67.48633
80911;BME280;70359;51.420;7.032;2023-11-19T07:13:10;994.2336;;;12.37;67.48535
80911;BME280;70359;51.420;7.032;2023-11-19T07:15:35;994.2256;;;12.37;67.57422
80911;BME280;70359;51.420;7.032;2023-11-19T07:18:02;994.2994;;;12.44;67.22363
80911;BME280;70359;51.420;7.032;2023-11-19T07:20:25;994.2761;;;12.36;67.30273
80911;BME280;70359;51.420;7.032;2023-11-19T07:22:50;994.3197;;;12.45;66.91895
80911;BME280;70359;51.420;7.032;2023-11-19T07:25:16;994.3286;;;12.36;67.22266
80911;BME280;70359;51.420;7.032;2023-11-19T07:27:40;994.3053;;;12.43;67.01855
80911;BME280;70359;51.420;7.032;2023-11-19T07:30:05;994.1677;;;12.36;67.13184
80911;BME280;70359;51.420;7.032;2023-11-19T07:32:30;994.1964;;;12.33;67.02637
80911;BME280;70359;51.420;7.032;2023-11-19T07:34:55;994.2291;;;12.2;67.38086
80911;BME280;70359;51.420;7.032;2023-11-19T07:37:20;994.3131;;;12.29;66.76953
80911;BME280;70359;51.420;7.032;2023-11-19T07:39:45;994.3373;;;12.15;67.21289
80911;BME280;70359;51.420;7.032;2023-11-19T07:42:10;994.3745;;;12.21;66.98438
80911;BME280;70359;51.420;7.032;2023-11-19T07:44:35;994.4343;;;12.23;67.00977
80911;BME280;70359;51.420;7.032;2023-11-19T07:47:00;994.5059;;;12.26;66.66406
80911;BME280;70359;51.420;7.032;2023-11-19T07:49:25;994.5494;;;12.23;66.75
80911;BME280;70359;51.420;7.032;2023-11-19T07:51:50;994.5857;;;12.29;65.8623
80911;BME280;70359;51.420;7.032;2023-11-19T07:54:15;994.5939;;;12.22;66.69238
80911;BME280;70359;51.420;7.032;2023-11-19T07:56:40;994.6752;;;12.27;66.24512
80911;BME280;70359;51.420;7.032;2023-11-19T07:59:05;994.6214;;;12.25;66.35645
80911;BME280;70359;51.420;7.032;2023-11-19T08:01:30;994.6882;;;12.31;66.20703
80911;BME280;70359;51.420;7.032;2023-11-19T08:03:56;994.6758;;;12.22;66.45313
80911;BME280;70359;51.420;7.032;2023-11-19T08:06:20;994.6841;;;12.22;66.27148
80911;BME280;70359;51.420;7.032;2023-11-19T08:08:45;994.7455;;;12.24;66.34375
80911;BME280;70359;51.420;7.032;2023-11-19T08:11:10;994.7762;;;12.2;66.41797
80911;BME280;70359;51.420;7.032;2023-11-19T08:13:35;994.8175;;;12.33;66.23242
80911;BME280;70359;51.420;7.032;2023-11-19T08:16:00;994.7551;;;12.36;66.19141
80911;BME280;70359;51.420;7.032;2023-11-19T08:18:25;994.8544;;;12.38;65.8418
80911;BME280;70359;51.420;7.032;2023-11-19T08:20:50;994.8753;;;12.38;66.31836
80911;BME280;70359;51.420;7.032;2023-11-19T08:23:15;994.9197;;;12.31;66.30859
80911;BME280;70359;51.420;7.032;2023-11-19T08:25:40;994.9333;;;12.11;66.5498
80911;BME280;70359;51.420;7.032;2023-11-19T08:28:05;994.9808;;;12.12;66.75684
80911;BME280;70359;51.420;7.032;2023-11-19T08:30:30;994.9746;;;12.17;66.84277
80911;BME280;70359;51.420;7.032;2023-11-19T08:32:55;994.9365;;;12.19;66.37109
80911;BME280;70359;51.420;7.032;2023-11-19T08:35:20;994.8873;;;12.05;67.0293
80911;BME280;70359;51.420;7.032;2023-11-19T08:37:45;994.8094;;;12.18;66.73047
80911;BME280;70359;51.420;7.032;2023-11-19T08:40:11;994.8881;;;11.95;67.04785
80911;BME280;70359;51.420;7.032;2023-11-19T08:42:35;994.7874;;;12;67.40625
80911;BME280;70359;51.420;7.032;2023-11-19T08:45:00;994.8594;;;12.02;67.28418
80911;BME280;70359;51.420;7.032;2023-11-19T08:47:25;994.8427;;;12.11;66.98145
80911;BME280;70359;51.420;7.032;2023-11-19T08:49:50;994.8436;;;12.04;67.18457
80911;BME280;70359;51.420;7.032;2023-11-19T08:52:15;994.7675;;;11.95;67.35352
80911;BME280;70359;51.420;7.032;2023-11-19T08:54:40;994.8072;;;11.95;67.84082
80911;BME280;70359;51.420;7.032;2023-11-19T08:57:05;994.7886;;;12.07;67.03125
80911;BME280;70359;51.420;7.032;2023-11-19T08:59:30;994.8367;;;12.01;67.3623
80911;BME280;70359;51.420;7.032;2023-11-19T09:01:55;994.8531;;;11.94;67.23926
80911;BME280;70359;51.420;7.032;2023-11-19T09:04:20;994.9597;;;11.83;67.61914
80911;BME280;70359;51.420;7.032;2023-11-19T09:06:45;994.9612;;;11.99;66.92871
80911;BME280;70359;51.420;7.032;2023-11-19T09:09:10;994.945;;;11.96;67.37793
80911;BME280;70359;51.420;7.032;2023-11-19T09:11:35;994.9129;;;12.12;67.37988
80911;BME280;70359;51.420;7.032;2023-11-19T09:14:00;994.89;;;12.09;67.11523
80911;BME280;70359;51.420;7.032;2023-11-19T09:16:25;994.9717;;;12.08;66.96484
80911;BME280;70359;51.420;7.032;2023-11-19T09:18:50;994.9703;;;12.19;67.23047
80911;BME280;70359;51.420;7.032;2023-11-19T09:21:15;994.9678;;;12.13;66.79199
80911;BME280;70359;51.420;7.032;2023-11-19T09:23:40;994.9395;;;12.14;66.70215
80911;BME280;70359;51.420;7.032;2023-11-19T09:26:05;995.0378;;;12.13;67.01855
80911;BME280;70359;51.420;7.032;2023-11-19T09:28:30;994.9678;;;12.16;67.10156
80911;BME280;70359;51.420;7.032;2023-11-19T09:30:55;994.9435;;;12.39;66.5918
80911;BME280;70359;51.420;7.032;2023-11-19T09:33:20;995.0153;;;12.43;66.30371
80911;BME280;70359;51.420;7.032;2023-11-19T09:35:45;994.9486;;;12.33;66.09668
80911;BME280;70359;51.420;7.032;2023-11-19T09:38:10;994.8453;;;12.47;65.68555
80911;BME280;70359;51.420;7.032;2023-11-19T09:40:35;994.9207;;;12.49;66.08691
80911;BME280;70359;51.420;7.032;2023-11-19T09:43:00;994.95;;;12.42;65.41797
80911;BME280;70359;51.420;7.032;2023-11-19T09:45:26;994.9506;;;12.54;65.84375
80911;BME280;70359;51.420;7.032;2023-11-19T09:47:50;994.8884;;;12.47;65.41309
80911;BME280;70359;51.420;7.032;2023-11-19T09:50:16;994.8994;;;12.54;65.52637
80911;BME280;70359;51.420;7.032;2023-11-19T09:52:40;994.9117;;;12.65;65.00879
80911;BME280;70359;51.420;7.032;2023-11-19T09:55:05;994.9058;;;12.6;65.64746
80911;BME280;70359;51.420;7.032;2023-11-19T09:57:30;994.9375;;;12.69;64.95801
80911;BME280;70359;51.420;7.032;2023-11-19T09:59:55;994.9328;;;12.66;64.91895
80911;BME280;70359;51.420;7.032;2023-11-19T10:02:20;994.9695;;;12.69;64.39063
80911;BME280;70359;51.420;7.032;2023-11-19T10:04:45;994.9642;;;12.8;64.58789
80911;BME280;70359;51.420;7.032;2023-11-19T10:07:10;994.9668;;;12.8;63.91797
80911;BME280;70359;51.420;7.032;2023-11-19T10:09:35;994.9757;;;12.69;64.34473
80911;BME280;70359;51.420;7.032;2023-11-19T10:12:00;994.962;;;12.81;63.95313
80911;BME280;70359;51.420;7.032;2023-11-19T10:14:25;994.9596;;;12.68;63.94629
80911;BME280;70359;51.420;7.032;2023-11-19T10:16:50;994.87;;;12.62;63.60742
80911;BME280;70359;51.420;7.032;2023-11-19T10:19:16;994.9063;;;12.65;64.02051
80911;BME280;70359;51.420;7.032;2023-11-19T10:21:40;994.8329;;;12.63;64.19922
80911;BME280;70359;51.420;7.032;2023-11-19T10:24:05;994.8337;;;12.48;63.89453
80911;BME280;70359;51.420;7.032;2023-11-19T10:26:30;994.9232;;;12.72;63.89453
80911;BME280;70359;51.420;7.032;2023-11-19T10:28:55;994.9155;;;12.73;63.45313
80911;BME280;70359;51.420;7.032;2023-11-19T10:31:21;994.8526;;;12.65;63.63477
80911;BME280;70359;51.420;7.032;2023-11-19T10:33:45;994.8283;;;12.66;63.93066
80911;BME280;70359;51.420;7.032;2023-11-19T10:36:11;994.8669;;;12.82;63.18359
80911;BME280;70359;51.420;7.032;2023-11-19T10:38:35;994.8638;;;12.95;62.82617
80911;BME280;70359;51.420;7.032;2023-11-19T10:41:00;994.8293;;;12.76;62.88867
80911;BME280;70359;51.420;7.032;2023-11-19T10:43:25;994.7452;;;12.85;62.68555
80911;BME280;70359;51.420;7.032;2023-11-19T10:45:50;994.7023;;;12.81;62.69238
80911;BME280;70359;51.420;7.032;2023-11-19T10:48:15;994.803;;;12.88;63.03027
80911;BME280;70359;51.420;7.032;2023-11-19T10:50:41;994.7149;;;12.84;62.68457
80911;BME280;70359;51.420;7.032;2023-11-19T10:53:06;994.7199;;;12.77;62.94824
80911;BME280;70359;51.420;7.032;2023-11-19T10:55:31;994.696;;;12.75;63.02344
80911;BME280;70359;51.420;7.032;2023-11-19T10:57:55;994.7375;;;12.82;62.43164
80911;BME280;70359;51.420;7.032;2023-11-19T11:00:20;994.7461;;;12.79;62.61133
80911;BME280;70359;51.420;7.032;2023-11-19T11:02:45;994.6454;;;12.91;62.44336
80911;BME280;70359;51.420;7.032;2023-11-19T11:05:11;994.6655;;;12.83;62.60449
80911;BME280;70359;51.420;7.032;2023-11-19T11:07:35;994.6969;;;12.97;62.39844
80911;BME280;70359;51.420;7.032;2023-11-19T11:10:00;994.6867;;;12.98;62.05664
80911;BME280;70359;51.420;7.032;2023-11-19T11:12:25;994.6508;;;13.07;62.14746
80911;BME280;70359;51.420;7.032;2023-11-19T11:14:50;994.5927;;;12.95;62.05273
80911;BME280;70359;51.420;7.032;2023-11-19T11:17:16;994.5275;;;12.89;61.65918
80911;BME280;70359;51.420;7.032;2023-11-19T11:19:40;994.6276;;;12.88;62.28125
80911;BME280;70359;51.420;7.032;2023-11-19T11:22:05;994.6175;;;13.09;61.85547
80911;BME280;70359;51.420;7.032;2023-11-19T11:24:37;994.653;;;12.95;61.64355
80911;BME280;70359;51.420;7.032;2023-11-19T11:27:08;994.6365;;;12.98;61.88672
80911;BME280;70359;51.420;7.032;2023-11-19T11:29:24;994.647;;;13;62.79883
80911;BME280;70359;51.420;7.032;2023-11-19T11:31:48;994.5631;;;12.91;61.79688
80911;BME280;70359;51.420;7.032;2023-11-19T11:34:19;994.5356;;;12.84;61.91309
80911;BME280;70359;51.420;7.032;2023-11-19T11:36:36;994.4454;;;12.96;61.38184
80911;BME280;70359;51.420;7.032;2023-11-19T11:39:00;994.4797;;;12.85;61.76465
80911;BME280;70359;51.420;7.032;2023-11-19T11:41:25;994.551;;;12.96;61.53027
80911;BME280;70359;51.420;7.032;2023-11-19T11:43:51;994.3797;;;12.89;61.44238
80911;BME280;70359;51.420;7.032;2023-11-19T11:48:40;994.3745;;;13.05;60.98535
80911;BME280;70359;51.420;7.032;2023-11-19T11:51:06;994.3535;;;13.09;60.97949
80911;BME280;70359;51.420;7.032;2023-11-19T11:53:30;994.3262;;;13.2;60.72266
80911;BME280;70359;51.420;7.032;2023-11-19T11:55:56;994.2971;;;13.2;60.16504
80911;BME280;70359;51.420;7.032;2023-11-19T11:58:21;994.2442;;;13.18;59.75293
80911;BME280;70359;51.420;7.032;2023-11-19T12:00:46;994.2911;;;13.22;60.57715
80911;BME280;70359;51.420;7.032;2023-11-19T12:03:11;994.2286;;;13.14;59.70117
80911;BME280;70359;51.420;7.032;2023-11-19T12:05:36;994.2352;;;13.11;60.53906
80911;BME280;70359;51.420;7.032;2023-11-19T12:08:01;994.2063;;;13.09;60.0127
80911;BME280;70359;51.420;7.032;2023-11-19T12:10:26;994.1686;;;13.07;60.08984
80911;BME280;70359;51.420;7.032;2023-11-19T12:12:52;994.1847;;;13.28;60.10645
80911;BME280;70359;51.420;7.032;2023-11-19T12:15:16;994.2078;;;13.18;59.78613
80911;BME280;70359;51.420;7.032;2023-11-19T12:17:41;994.1703;;;13.21;59.80078
80911;BME280;70359;51.420;7.032;2023-11-19T12:20:06;994.189;;;13.34;60.29785
80911;BME280;70359;51.420;7.032;2023-11-19T12:22:31;994.1202;;;13.46;59.26563